sensor_id;sensor_type;location;lat;lon;timestamp;pressure;altitude;pressure_sealevel;temperature;humidity
51439;BME280;38816;51.142;-0.974;2023-07-09T00:02:16;100259.88;;;16.80;100.00
51439;BME280;38816;51.142;-0.974;2023-07-09T00:04:42;100271.97;;;16.81;100.00
51439;BME280;38816;51.142;-0.974;2023-07-09T00:07:24;100266.81;;;16.80;100.00
51439;BME280;38816;51.142;-0.974;2023-07-09T00:09:51;100262.50;;;16.74;100.00
51439;BME280;38816;51.142;-0.974;2023-07-09T00:12:17;100265.06;;;16.80;100.00
51439;BME280;38816;51.142;-0.974;2023-07-09T00:14:43;100271.16;;;16.76;100.00
51439;BME280;38816;51.142;-0.974;2023-07-09T00:17:21;100270.31;;;16.71;100.00
51439;BME280;38816;51.142;-0.974;2023-07-09T00:19:48;100273.78;;;16.65;100.00
51439;BME280;38816;51.142;-0.974;2023-07-09T00:22:16;100267.00;;;16.48;100.00
51439;BME280;38816;51.142;-0.974;2023-07-09T00:24:48;100280.88;;;16.43;100.00
51439;BME280;38816;51.142;-0.974;2023-07-09T00:27:15;100273.19;;;16.30;100.00
51439;BME280;38816;51.142;-0.974;2023-07-09T00:29:42;100275.84;;;16.22;100.00
51439;BME280;38816;51.142;-0.974;2023-07-09T00:32:11;100272.44;;;16.14;100.00
51439;BME280;38816;51.142;-0.974;2023-07-09T00:34:37;100275.91;;;16.07;100.00
51439;BME280;38816;51.142;-0.974;2023-07-09T00:37:09;100274.25;;;15.93;100.00
51439;BME280;38816;51.142;-0.974;2023-07-09T00:39:35;100282.06;;;15.90;100.00
51439;BME280;38816;51.142;-0.974;2023-07-09T00:42:00;100279.50;;;15.86;100.00
51439;BME280;38816;51.142;-0.974;2023-07-09T00:44:29;100271.78;;;15.72;100.00
51439;BME280;38816;51.142;-0.974;2023-07-09T00:49:39;100283.00;;;15.69;100.00
51439;BME280;38816;51.142;-0.974;2023-07-09T00:52:22;100282.16;;;15.63;100.00
51439;BME280;38816;51.142;-0.974;2023-07-09T00:54:51;100274.41;;;15.54;100.00
51439;BME280;38816;51.142;-0.974;2023-07-09T00:57:21;100271.84;;;15.46;100.00
51439;BME280;38816;51.142;-0.974;2023-07-09T00:59:55;100283.06;;;15.45;100.00
51439;BME280;38816;51.142;-0.974;2023-07-09T01:02:21;100277.03;;;15.35;100.00
51439;BME280;38816;51.142;-0.974;2023-07-09T01:04:55;100282.22;;;15.31;100.00
51439;BME280;38816;51.142;-0.974;2023-07-09T01:07:22;100284.00;;;15.23;100.00
51439;BME280;38816;51.142;-0.974;2023-07-09T01:09:48;100289.16;;;15.16;100.00
51439;BME280;38816;51.142;-0.974;2023-07-09T01:12:14;100295.22;;;15.11;100.00
51439;BME280;38816;51.142;-0.974;2023-07-09T01:14:41;100301.25;;;15.07;100.00
51439;BME280;38816;51.142;-0.974;2023-07-09T01:17:07;100291.78;;;14.98;100.00
51439;BME280;38816;51.142;-0.974;2023-07-09T01:19:40;100302.13;;;14.98;100.00
51439;BME280;38816;51.142;-0.974;2023-07-09T01:22:15;100305.59;;;14.97;100.00
51439;BME280;38816;51.142;-0.974;2023-07-09T01:25:02;100309.03;;;14.94;100.00
51439;BME280;38816;51.142;-0.974;2023-07-09T01:27:42;100310.75;;;14.92;100.00
51439;BME280;38816;51.142;-0.974;2023-07-09T01:30:13;100305.59;;;14.88;100.00
51439;BME280;38816;51.142;-0.974;2023-07-09T01:32:42;100292.66;;;14.79;100.00
51439;BME280;38816;51.142;-0.974;2023-07-09T01:35:13;100308.19;;;14.77;100.00
51439;BME280;38816;51.142;-0.974;2023-07-09T01:37:41;100306.44;;;14.70;100.00
51439;BME280;38816;51.142;-0.974;2023-07-09T01:40:07;100298.69;;;14.64;100.00
51439;BME280;38816;51.142;-0.974;2023-07-09T01:42:35;100304.72;;;14.66;100.00
51439;BME280;38816;51.142;-0.974;2023-07-09T01:45:01;100312.47;;;14.57;100.00
51439;BME280;38816;51.142;-0.974;2023-07-09T01:47:29;100307.31;;;14.51;100.00
51439;BME280;38816;51.142;-0.974;2023-07-09T01:49:55;100322.75;;;14.44;100.00
51439;BME280;38816;51.142;-0.974;2023-07-09T01:52:28;100326.22;;;14.43;100.00
51439;BME280;38816;51.142;-0.974;2023-07-09T01:54:54;100321.00;;;14.31;100.00
51439;BME280;38816;51.142;-0.974;2023-07-09T01:57:23;100321.00;;;14.27;100.00
51439;BME280;38816;51.142;-0.974;2023-07-09T01:59:50;100310.66;;;14.25;100.00
51439;BME280;38816;51.142;-0.974;2023-07-09T02:02:16;100314.94;;;14.20;100.00
51439;BME280;38816;51.142;-0.974;2023-07-09T02:04:46;100312.34;;;14.17;100.00
51439;BME280;38816;51.142;-0.974;2023-07-09T02:07:12;100312.34;;;14.11;100.00
51439;BME280;38816;51.142;-0.974;2023-07-09T02:09:38;100318.38;;;14.11;100.00
51439;BME280;38816;51.142;-0.974;2023-07-09T02:12:04;100322.69;;;14.12;100.00
51439;BME280;38816;51.142;-0.974;2023-07-09T02:14:29;100334.75;;;14.18;100.00
51439;BME280;38816;51.142;-0.974;2023-07-09T02:16:54;100333.03;;;14.17;100.00
51439;BME280;38816;51.142;-0.974;2023-07-09T02:19:20;100329.63;;;14.24;100.00
51439;BME280;38816;51.142;-0.974;2023-07-09T02:21:45;100337.41;;;14.33;100.00
51439;BME280;38816;51.142;-0.974;2023-07-09T02:24:11;100331.38;;;14.37;100.00
51439;BME280;38816;51.142;-0.974;2023-07-09T02:26:36;100320.19;;;14.41;100.00
51439;BME280;38816;51.142;-0.974;2023-07-09T02:29:02;100283.09;;;14.42;100.00
51439;BME280;38816;51.142;-0.974;2023-07-09T02:31:27;100271.09;;;14.55;100.00
51439;BME280;38816;51.142;-0.974;2023-07-09T02:33:57;100293.50;;;14.59;100.00
51439;BME280;38816;51.142;-0.974;2023-07-09T02:36:24;100298.69;;;14.68;100.00
51439;BME280;38816;51.142;-0.974;2023-07-09T02:38:50;100315.09;;;14.74;100.00
51439;BME280;38816;51.142;-0.974;2023-07-09T02:41:15;100310.75;;;14.76;100.00
51439;BME280;38816;51.142;-0.974;2023-07-09T02:43:41;100322.00;;;14.82;100.00
51439;BME280;38816;51.142;-0.974;2023-07-09T02:46:06;100302.16;;;14.78;100.00
51439;BME280;38816;51.142;-0.974;2023-07-09T02:48:32;100278.84;;;14.71;100.00
51439;BME280;38816;51.142;-0.974;2023-07-09T02:50:58;100275.41;;;14.73;100.00
51439;BME280;38816;51.142;-0.974;2023-07-09T02:53:23;100267.66;;;14.68;100.00
51439;BME280;38816;51.142;-0.974;2023-07-09T02:55:48;100305.59;;;14.68;100.00
51439;BME280;38816;51.142;-0.974;2023-07-09T02:58:14;100307.31;;;14.64;100.00
51439;BME280;38816;51.142;-0.974;2023-07-09T03:00:39;100300.41;;;14.63;100.00
51439;BME280;38816;51.142;-0.974;2023-07-09T03:03:04;100286.59;;;14.57;100.00
51439;BME280;38816;51.142;-0.974;2023-07-09T03:05:30;100296.94;;;14.57;100.00
51439;BME280;38816;51.142;-0.974;2023-07-09T03:07:55;100288.34;;;14.55;100.00
51439;BME280;38816;51.142;-0.974;2023-07-09T03:10:20;100295.22;;;14.51;100.00
51439;BME280;38816;51.142;-0.974;2023-07-09T03:12:46;100290.88;;;14.46;100.00
51439;BME280;38816;51.142;-0.974;2023-07-09T03:15:12;100294.31;;;14.38;100.00
51439;BME280;38816;51.142;-0.974;2023-07-09T03:17:37;100296.88;;;14.35;100.00
51439;BME280;38816;51.142;-0.974;2023-07-09T03:20:03;100311.56;;;14.36;100.00
51439;BME280;38816;51.142;-0.974;2023-07-09T03:22:30;100308.94;;;14.33;100.00
51439;BME280;38816;51.142;-0.974;2023-07-09T03:24:55;100318.44;;;14.34;100.00
51439;BME280;38816;51.142;-0.974;2023-07-09T03:27:20;100302.03;;;14.35;100.00
51439;BME280;38816;51.142;-0.974;2023-07-09T03:29:46;100302.06;;;14.41;100.00
51439;BME280;38816;51.142;-0.974;2023-07-09T03:32:11;100293.44;;;14.39;100.00
51439;BME280;38816;51.142;-0.974;2023-07-09T03:34:36;100298.63;;;14.46;100.00
51439;BME280;38816;51.142;-0.974;2023-07-09T03:37:02;100289.13;;;14.44;100.00
51439;BME280;38816;51.142;-0.974;2023-07-09T03:39:27;100302.13;;;14.51;100.00
51439;BME280;38816;51.142;-0.974;2023-07-09T03:41:52;100305.56;;;14.53;100.00
51439;BME280;38816;51.142;-0.974;2023-07-09T03:44:18;100316.78;;;14.53;100.00
51439;BME280;38816;51.142;-0.974;2023-07-09T03:46:43;100307.31;;;14.51;100.00
51439;BME280;38816;51.142;-0.974;2023-07-09T03:49:09;100319.38;;;14.55;100.00
51439;BME280;38816;51.142;-0.974;2023-07-09T03:51:34;100317.66;;;14.57;100.00
51439;BME280;38816;51.142;-0.974;2023-07-09T03:53:59;100312.47;;;14.54;100.00
51439;BME280;38816;51.142;-0.974;2023-07-09T03:56:25;100287.41;;;14.45;100.00
51439;BME280;38816;51.142;-0.974;2023-07-09T03:58:50;100296.91;;;14.48;100.00
51439;BME280;38816;51.142;-0.974;2023-07-09T04:01:50;100320.22;;;14.52;100.00
51439;BME280;38816;51.142;-0.974;2023-07-09T04:04:15;100321.97;;;14.50;100.00
51439;BME280;38816;51.142;-0.974;2023-07-09T04:06:45;100320.16;;;14.44;100.00
51439;BME280;38816;51.142;-0.974;2023-07-09T04:09:11;100329.66;;;14.42;100.00
51439;BME280;38816;51.142;-0.974;2023-07-09T04:11:36;100333.97;;;14.42;100.00
51439;BME280;38816;51.142;-0.974;2023-07-09T04:14:01;100332.22;;;14.39;100.00
51439;BME280;38816;51.142;-0.974;2023-07-09T04:16:27;100325.31;;;14.35;100.00
51439;BME280;38816;51.142;-0.974;2023-07-09T04:18:52;100343.44;;;14.44;100.00
51439;BME280;38816;51.142;-0.974;2023-07-09T04:21:17;100335.69;;;14.41;100.00
51439;BME280;38816;51.142;-0.974;2023-07-09T04:23:43;100335.69;;;14.41;100.00
51439;BME280;38816;51.142;-0.974;2023-07-09T04:26:12;100330.53;;;14.46;100.00
51439;BME280;38816;51.142;-0.974;2023-07-09T04:28:38;100333.09;;;14.43;100.00
51439;BME280;38816;51.142;-0.974;2023-07-09T04:31:03;100336.53;;;14.40;100.00
51439;BME280;38816;51.142;-0.974;2023-07-09T04:33:29;100345.19;;;14.41;100.00
51439;BME280;38816;51.142;-0.974;2023-07-09T04:35:55;100337.41;;;14.36;100.00
51439;BME280;38816;51.142;-0.974;2023-07-09T04:38:20;100349.47;;;14.39;100.00
51439;BME280;38816;51.142;-0.974;2023-07-09T04:40:46;100334.81;;;14.33;100.00
51439;BME280;38816;51.142;-0.974;2023-07-09T04:43:12;100350.34;;;14.44;100.00
51439;BME280;38816;51.142;-0.974;2023-07-09T04:45:37;100345.19;;;14.46;100.00
51439;BME280;38816;51.142;-0.974;2023-07-09T04:48:03;100360.72;;;14.49;100.00
51439;BME280;38816;51.142;-0.974;2023-07-09T04:50:28;100367.66;;;14.51;100.00
51439;BME280;38816;51.142;-0.974;2023-07-09T04:52:53;100361.63;;;14.51;100.00
51439;BME280;38816;51.142;-0.974;2023-07-09T04:55:19;100353.84;;;14.57;100.00
51439;BME280;38816;51.142;-0.974;2023-07-09T04:57:45;100346.97;;;14.65;100.00
51439;BME280;38816;51.142;-0.974;2023-07-09T05:00:11;100353.88;;;14.64;100.00
51439;BME280;38816;51.142;-0.974;2023-07-09T05:02:36;100378.03;;;14.74;100.00
51439;BME280;38816;51.142;-0.974;2023-07-09T05:05:02;100359.06;;;14.74;100.00
51439;BME280;38816;51.142;-0.974;2023-07-09T05:07:28;100364.22;;;14.81;100.00
51439;BME280;38816;51.142;-0.974;2023-07-09T05:09:53;100361.66;;;14.83;100.00
51439;BME280;38816;51.142;-0.974;2023-07-09T05:12:19;100353.88;;;14.81;100.00
51439;BME280;38816;51.142;-0.974;2023-07-09T05:14:45;100350.47;;;14.82;100.00
51439;BME280;38816;51.142;-0.974;2023-07-09T05:17:11;100353.03;;;14.88;100.00
51439;BME280;38816;51.142;-0.974;2023-07-09T05:19:36;100353.91;;;14.87;100.00
51439;BME280;38816;51.142;-0.974;2023-07-09T05:22:02;100363.41;;;14.91;100.00
51439;BME280;38816;51.142;-0.974;2023-07-09T05:24:27;100351.31;;;14.89;100.00
51439;BME280;38816;51.142;-0.974;2023-07-09T05:26:54;100372.03;;;14.98;100.00
51439;BME280;38816;51.142;-0.974;2023-07-09T05:29:19;100378.06;;;14.97;100.00
51439;BME280;38816;51.142;-0.974;2023-07-09T05:31:45;100361.66;;;14.92;100.00
51439;BME280;38816;51.142;-0.974;2023-07-09T05:34:10;100359.09;;;14.95;100.00
51439;BME280;38816;51.142;-0.974;2023-07-09T05:36:36;100372.03;;;15.00;100.00
51439;BME280;38816;51.142;-0.974;2023-07-09T05:39:01;100370.31;;;14.96;100.00
51439;BME280;38816;51.142;-0.974;2023-07-09T05:41:26;100386.72;;;15.01;100.00
51439;BME280;38816;51.142;-0.974;2023-07-09T05:43:52;100381.50;;;14.98;100.00
51439;BME280;38816;51.142;-0.974;2023-07-09T05:46:18;100392.75;;;15.06;100.00
51439;BME280;38816;51.142;-0.974;2023-07-09T05:48:44;100402.22;;;15.13;100.00
51439;BME280;38816;51.142;-0.974;2023-07-09T05:51:09;100405.69;;;15.29;100.00
51439;BME280;38816;51.142;-0.974;2023-07-09T05:53:35;100411.72;;;15.35;100.00
51439;BME280;38816;51.142;-0.974;2023-07-09T05:56:00;100395.34;;;15.41;100.00
51439;BME280;38816;51.142;-0.974;2023-07-09T05:58:26;100378.06;;;15.41;100.00
51439;BME280;38816;51.142;-0.974;2023-07-09T06:00:53;100380.63;;;15.52;100.00
51439;BME280;38816;51.142;-0.974;2023-07-09T06:03:19;100378.88;;;15.53;100.00
51439;BME280;38816;51.142;-0.974;2023-07-09T06:05:45;100371.13;;;15.59;100.00
51439;BME280;38816;51.142;-0.974;2023-07-09T06:08:10;100380.66;;;15.64;100.00
51439;BME280;38816;51.142;-0.974;2023-07-09T06:10:38;100397.06;;;15.65;100.00
51439;BME280;38816;51.142;-0.974;2023-07-09T06:13:03;100410.88;;;15.68;100.00
51439;BME280;38816;51.142;-0.974;2023-07-09T06:15:28;100401.38;;;15.67;100.00
51439;BME280;38816;51.142;-0.974;2023-07-09T06:17:54;100396.19;;;15.69;100.00
51439;BME280;38816;51.142;-0.974;2023-07-09T06:20:19;100396.19;;;15.66;100.00
51439;BME280;38816;51.142;-0.974;2023-07-09T06:22:45;100392.72;;;15.65;100.00
51439;BME280;38816;51.142;-0.974;2023-07-09T06:25:10;100388.41;;;15.66;100.00
51439;BME280;38816;51.142;-0.974;2023-07-09T06:27:35;100389.25;;;15.74;100.00
51439;BME280;38816;51.142;-0.974;2023-07-09T06:30:01;100394.44;;;15.82;100.00
51439;BME280;38816;51.142;-0.974;2023-07-09T06:32:26;100398.72;;;15.89;100.00
51439;BME280;38816;51.142;-0.974;2023-07-09T06:34:52;100391.78;;;15.95;100.00
51439;BME280;38816;51.142;-0.974;2023-07-09T06:37:17;100381.34;;;16.11;100.00
51439;BME280;38816;51.142;-0.974;2023-07-09T06:39:42;100380.44;;;16.26;100.00
51439;BME280;38816;51.142;-0.974;2023-07-09T06:42:08;100371.75;;;16.30;100.00
51439;BME280;38816;51.142;-0.974;2023-07-09T06:44:33;100365.72;;;16.29;100.00
51439;BME280;38816;51.142;-0.974;2023-07-09T06:46:59;100373.50;;;16.28;100.00
51439;BME280;38816;51.142;-0.974;2023-07-09T06:49:25;100395.16;;;16.20;100.00
51439;BME280;38816;51.142;-0.974;2023-07-09T06:51:50;100406.41;;;16.23;100.00
51439;BME280;38816;51.142;-0.974;2023-07-09T06:54:15;100432.31;;;16.29;100.00
51439;BME280;38816;51.142;-0.974;2023-07-09T06:56:41;100428.81;;;16.36;100.00
51439;BME280;38816;51.142;-0.974;2023-07-09T06:59:07;100451.25;;;16.51;100.00
51439;BME280;38816;51.142;-0.974;2023-07-09T07:01:35;100442.47;;;16.70;100.00
51439;BME280;38816;51.142;-0.974;2023-07-09T07:04:00;100456.28;;;16.87;100.00
51439;BME280;38816;51.142;-0.974;2023-07-09T07:06:26;100454.50;;;16.95;100.00
51439;BME280;38816;51.142;-0.974;2023-07-09T07:08:51;100468.31;;;16.99;100.00
51439;BME280;38816;51.142;-0.974;2023-07-09T07:11:17;100483.84;;;17.08;100.00
51439;BME280;38816;51.142;-0.974;2023-07-09T07:13:43;100479.50;;;17.09;100.00
51439;BME280;38816;51.142;-0.974;2023-07-09T07:16:10;100468.16;;;17.22;100.00
51439;BME280;38816;51.142;-0.974;2023-07-09T07:18:36;100462.06;;;17.29;100.00
51439;BME280;38816;51.142;-0.974;2023-07-09T07:21:02;100478.44;;;17.39;100.00
51439;BME280;38816;51.142;-0.974;2023-07-09T07:23:28;100466.34;;;17.32;100.00
51439;BME280;38816;51.142;-0.974;2023-07-09T07:25:54;100463.81;;;17.27;100.00
51439;BME280;38816;51.142;-0.974;2023-07-09T07:28:20;100446.56;;;17.14;100.00
51439;BME280;38816;51.142;-0.974;2023-07-09T07:30:45;100438.81;;;17.06;100.00
51439;BME280;38816;51.142;-0.974;2023-07-09T07:33:13;100437.16;;;17.02;100.00
51439;BME280;38816;51.142;-0.974;2023-07-09T07:35:39;100431.13;;;16.94;100.00
51439;BME280;38816;51.142;-0.974;2023-07-09T07:38:04;100420.78;;;16.89;100.00
51439;BME280;38816;51.142;-0.974;2023-07-09T07:40:30;100430.34;;;16.83;100.00
51439;BME280;38816;51.142;-0.974;2023-07-09T07:42:55;100420.84;;;16.80;100.00
51439;BME280;38816;51.142;-0.974;2023-07-09T07:45:21;100392.31;;;16.71;100.00
51439;BME280;38816;51.142;-0.974;2023-07-09T07:47:46;100394.94;;;16.65;100.00
51439;BME280;38816;51.142;-0.974;2023-07-09T07:50:13;100394.94;;;16.65;100.00
51439;BME280;38816;51.142;-0.974;2023-07-09T07:52:38;100379.44;;;16.53;100.00
51439;BME280;38816;51.142;-0.974;2023-07-09T07:55:05;100377.75;;;16.49;100.00
51439;BME280;38816;51.142;-0.974;2023-07-09T07:57:31;100391.59;;;16.44;100.00
51439;BME280;38816;51.142;-0.974;2023-07-09T07:59:57;100398.47;;;16.50;100.00
51439;BME280;38816;51.142;-0.974;2023-07-09T08:02:23;100407.97;;;16.56;100.00
51439;BME280;38816;51.142;-0.974;2023-07-09T08:04:49;100413.13;;;16.63;100.00
51439;BME280;38816;51.142;-0.974;2023-07-09T08:07:17;100407.03;;;16.66;100.00
51439;BME280;38816;51.142;-0.974;2023-07-09T08:09:44;100397.53;;;16.63;100.00
51439;BME280;38816;51.142;-0.974;2023-07-09T08:12:10;100420.00;;;16.66;100.00
51439;BME280;38816;51.142;-0.974;2023-07-09T08:14:37;100450.31;;;16.64;100.00
51439;BME280;38816;51.142;-0.974;2023-07-09T08:17:04;100441.69;;;16.59;100.00
51439;BME280;38816;51.142;-0.974;2023-07-09T08:19:30;100436.50;;;16.59;100.00
51439;BME280;38816;51.142;-0.974;2023-07-09T08:21:56;100428.72;;;16.62;100.00
51439;BME280;38816;51.142;-0.974;2023-07-09T08:24:21;100417.44;;;16.60;100.00
51439;BME280;38816;51.142;-0.974;2023-07-09T08:26:46;100458.97;;;16.61;100.00
51439;BME280;38816;51.142;-0.974;2023-07-09T08:29:12;100479.69;;;16.69;100.00
51439;BME280;38816;51.142;-0.974;2023-07-09T08:31:37;100484.00;;;16.70;100.00
51439;BME280;38816;51.142;-0.974;2023-07-09T08:34:05;100493.56;;;16.74;100.00
51439;BME280;38816;51.142;-0.974;2023-07-09T08:36:31;100481.34;;;16.88;100.00
51439;BME280;38816;51.142;-0.974;2023-07-09T08:38:56;100457.91;;;17.01;100.00
51439;BME280;38816;51.142;-0.974;2023-07-09T08:44:22;100459.50;;;17.20;100.00
51439;BME280;38816;51.142;-0.974;2023-07-09T08:47:16;100442.19;;;17.25;100.00
51439;BME280;38816;51.142;-0.974;2023-07-09T08:49:53;100456.75;;;17.41;100.00
51439;BME280;38816;51.142;-0.974;2023-07-09T08:52:28;100435.03;;;17.49;100.00
51439;BME280;38816;51.142;-0.974;2023-07-09T08:54:57;100448.75;;;17.66;100.00
51439;BME280;38816;51.142;-0.974;2023-07-09T08:57:27;100440.00;;;17.79;100.00
51439;BME280;38816;51.142;-0.974;2023-07-09T09:00:13;100427.84;;;17.78;100.00
51439;BME280;38816;51.142;-0.974;2023-07-09T09:02:45;100420.91;;;17.80;100.00
51439;BME280;38816;51.142;-0.974;2023-07-09T09:05:14;100430.34;;;17.87;100.00
51439;BME280;38816;51.142;-0.974;2023-07-09T09:07:43;100428.63;;;17.89;100.00
51439;BME280;38816;51.142;-0.974;2023-07-09T09:10:23;100445.81;;;18.01;100.00
51439;BME280;38816;51.142;-0.974;2023-07-09T09:13:02;100433.78;;;17.94;100.00
51439;BME280;38816;51.142;-0.974;2023-07-09T09:15:30;100458.06;;;17.91;100.00
51439;BME280;38816;51.142;-0.974;2023-07-09T09:18:01;100462.50;;;17.82;100.00
51439;BME280;38816;51.142;-0.974;2023-07-09T09:20:35;100447.91;;;17.64;100.00
51439;BME280;38816;51.142;-0.974;2023-07-09T09:23:13;100470.47;;;17.59;100.00
51439;BME280;38816;51.142;-0.974;2023-07-09T09:25:41;100465.34;;;17.50;100.00
51439;BME280;38816;51.142;-0.974;2023-07-09T09:28:09;100460.22;;;17.40;100.00
51439;BME280;38816;51.142;-0.974;2023-07-09T09:30:34;100460.25;;;17.39;100.00
51439;BME280;38816;51.142;-0.974;2023-07-09T09:33:07;100459.34;;;17.41;100.00
51439;BME280;38816;51.142;-0.974;2023-07-09T09:35:38;100459.38;;;17.43;100.00
51439;BME280;38816;51.142;-0.974;2023-07-09T09:38:11;100462.81;;;17.43;100.00
51439;BME280;38816;51.142;-0.974;2023-07-09T09:40:37;100459.22;;;17.55;100.00
51439;BME280;38816;51.142;-0.974;2023-07-09T09:43:11;100470.25;;;17.86;100.00
51439;BME280;38816;51.142;-0.974;2023-07-09T09:45:39;100456.31;;;17.93;100.00
51439;BME280;38816;51.142;-0.974;2023-07-09T09:48:36;100466.50;;;18.13;100.00
51439;BME280;38816;51.142;-0.974;2023-07-09T09:51:03;100478.44;;;18.31;100.00
51439;BME280;38816;51.142;-0.974;2023-07-09T09:53:41;100480.78;;;18.56;100.00
51439;BME280;38816;51.142;-0.974;2023-07-09T09:56:28;100494.16;;;18.94;100.00
51439;BME280;38816;51.142;-0.974;2023-07-09T09:58:55;100490.44;;;19.12;100.00
51439;BME280;38816;51.142;-0.974;2023-07-09T10:01:26;100495.38;;;19.31;100.00
51439;BME280;38816;51.142;-0.974;2023-07-09T10:03:56;100486.50;;;19.42;100.00
51439;BME280;38816;51.142;-0.974;2023-07-09T10:06:29;100485.38;;;19.59;100.00
51439;BME280;38816;51.142;-0.974;2023-07-09T10:09:33;100478.38;;;19.64;100.00
51439;BME280;38816;51.142;-0.974;2023-07-09T10:12:10;100481.72;;;19.70;100.00
51439;BME280;38816;51.142;-0.974;2023-07-09T10:19:48;100483.69;;;20.06;100.00
51439;BME280;38816;51.142;-0.974;2023-07-09T10:22:38;100468.59;;;20.21;100.00
51439;BME280;38816;51.142;-0.974;2023-07-09T10:25:26;100470.78;;;20.44;100.00
51439;BME280;38816;51.142;-0.974;2023-07-09T10:40:59;100466.38;;;21.61;98.52
51439;BME280;38816;51.142;-0.974;2023-07-09T10:46:13;100474.22;;;21.63;96.28
51439;BME280;38816;51.142;-0.974;2023-07-09T10:48:41;100470.34;;;21.43;95.00
51439;BME280;38816;51.142;-0.974;2023-07-09T10:51:17;100473.94;;;21.39;94.75
51439;BME280;38816;51.142;-0.974;2023-07-09T10:53:50;100473.28;;;21.28;94.80
51439;BME280;38816;51.142;-0.974;2023-07-09T10:56:20;100470.72;;;21.25;94.96
51439;BME280;38816;51.142;-0.974;2023-07-09T10:58:57;100487.13;;;21.33;94.60
51439;BME280;38816;51.142;-0.974;2023-07-09T11:01:32;100501.91;;;21.34;93.48
51439;BME280;38816;51.142;-0.974;2023-07-09T11:04:04;100488.78;;;21.37;94.22
51439;BME280;38816;51.142;-0.974;2023-07-09T11:06:35;100495.63;;;21.43;93.62
51439;BME280;38816;51.142;-0.974;2023-07-09T11:09:13;100493.88;;;21.43;94.03
51439;BME280;38816;51.142;-0.974;2023-07-09T11:11:44;100496.28;;;21.51;93.50
51439;BME280;38816;51.142;-0.974;2023-07-09T11:17:18;100494.91;;;21.72;93.55
51439;BME280;38816;51.142;-0.974;2023-07-09T11:19:54;100481.91;;;21.69;93.54
51439;BME280;38816;51.142;-0.974;2023-07-09T11:22:26;100483.19;;;21.87;92.19
51439;BME280;38816;51.142;-0.974;2023-07-09T11:25:03;100481.34;;;22.23;90.92
51439;BME280;38816;51.142;-0.974;2023-07-09T11:27:30;100475.91;;;22.62;90.13
51439;BME280;38816;51.142;-0.974;2023-07-09T11:32:47;100458.03;;;23.31;88.94
51439;BME280;38816;51.142;-0.974;2023-07-09T11:35:26;100450.81;;;23.64;87.20
51439;BME280;38816;51.142;-0.974;2023-07-09T11:37:53;100462.53;;;23.80;86.14
51439;BME280;38816;51.142;-0.974;2023-07-09T11:40:19;100464.38;;;23.78;84.99
51439;BME280;38816;51.142;-0.974;2023-07-09T11:42:52;100458.03;;;23.84;85.49
51439;BME280;38816;51.142;-0.974;2023-07-09T11:45:38;100460.06;;;24.00;81.99
51439;BME280;38816;51.142;-0.974;2023-07-09T11:48:26;100457.69;;;23.68;82.57
51439;BME280;38816;51.142;-0.974;2023-07-09T11:50:55;100447.31;;;23.38;83.56
51439;BME280;38816;51.142;-0.974;2023-07-09T11:53:35;100478.19;;;23.30;81.85
51439;BME280;38816;51.142;-0.974;2023-07-09T11:56:03;100477.31;;;23.30;81.91
51439;BME280;38816;51.142;-0.974;2023-07-09T11:58:29;100478.25;;;23.29;79.81
51439;BME280;38816;51.142;-0.974;2023-07-09T12:00:56;100461.44;;;23.34;80.43
51439;BME280;38816;51.142;-0.974;2023-07-09T12:03:26;100472.06;;;23.56;80.64
51439;BME280;38816;51.142;-0.974;2023-07-09T12:05:55;100465.06;;;23.83;79.46
51439;BME280;38816;51.142;-0.974;2023-07-09T12:08:34;100473.75;;;24.10;78.77
51439;BME280;38816;51.142;-0.974;2023-07-09T12:11:01;100474.94;;;24.00;76.82
51439;BME280;38816;51.142;-0.974;2023-07-09T12:13:26;100481.81;;;23.79;75.48
51439;BME280;38816;51.142;-0.974;2023-07-09T12:15:51;100477.25;;;23.58;75.95
51439;BME280;38816;51.142;-0.974;2023-07-09T12:18:17;100480.97;;;23.52;75.87
51439;BME280;38816;51.142;-0.974;2023-07-09T12:20:52;100472.41;;;23.45;77.46
51439;BME280;38816;51.142;-0.974;2023-07-09T12:23:29;100472.69;;;23.38;77.03
51439;BME280;38816;51.142;-0.974;2023-07-09T12:26:00;100475.56;;;23.57;77.13
51439;BME280;38816;51.142;-0.974;2023-07-09T12:28:26;100478.59;;;23.71;77.54
51439;BME280;38816;51.142;-0.974;2023-07-09T12:30:52;100475.19;;;23.69;78.31
51439;BME280;38816;51.142;-0.974;2023-07-09T12:33:20;100477.25;;;23.58;76.21
51439;BME280;38816;51.142;-0.974;2023-07-09T12:35:47;100472.25;;;23.50;76.16
51439;BME280;38816;51.142;-0.974;2023-07-09T12:38:21;100472.94;;;23.57;77.06
51439;BME280;38816;51.142;-0.974;2023-07-09T12:40:48;100460.66;;;23.57;76.74
51439;BME280;38816;51.142;-0.974;2023-07-09T12:43:19;100466.44;;;23.93;73.92
51439;BME280;38816;51.142;-0.974;2023-07-09T12:45:47;100461.34;;;24.39;72.17
51439;BME280;38816;51.142;-0.974;2023-07-09T12:48:12;100461.91;;;24.22;68.37
51439;BME280;38816;51.142;-0.974;2023-07-09T12:50:39;100455.44;;;24.07;70.12
51439;BME280;38816;51.142;-0.974;2023-07-09T12:53:18;100457.66;;;23.94;70.59
51439;BME280;38816;51.142;-0.974;2023-07-09T12:55:47;100464.84;;;23.63;71.82
51439;BME280;38816;51.142;-0.974;2023-07-09T12:58:22;100458.03;;;23.31;74.40
51439;BME280;38816;51.142;-0.974;2023-07-09T13:00:52;100476.66;;;23.23;77.10
51439;BME280;38816;51.142;-0.974;2023-07-09T13:03:30;100463.72;;;23.17;77.94
51439;BME280;38816;51.142;-0.974;2023-07-09T13:06:00;100464.94;;;23.07;77.98
51439;BME280;38816;51.142;-0.974;2023-07-09T13:08:29;100461.25;;;23.12;77.35
51439;BME280;38816;51.142;-0.974;2023-07-09T13:10:56;100460.81;;;23.79;78.03
51439;BME280;38816;51.142;-0.974;2023-07-09T13:13:54;100453.31;;;24.18;75.83